sensor_id;sensor_type;location;lat;lon;timestamp;P1;durP1;ratioP1;P2;durP2;ratioP2
46889;SDS011;32625;51.080;16.970;2022-09-13T00:01:10;11.98;;;9.75;;
46889;SDS011;32625;51.080;16.970;2022-09-13T00:03:37;11.35;;;8.35;;
46889;SDS011;32625;51.080;16.970;2022-09-13T00:08:39;9.85;;;7.82;;
46889;SDS011;32625;51.080;16.970;2022-09-13T00:11:06;12.57;;;8.50;;
46889;SDS011;32625;51.080;16.970;2022-09-13T00:13:33;11.25;;;8.07;;
46889;SDS011;32625;51.080;16.970;2022-09-13T00:16:00;9.43;;;8.30;;
46889;SDS011;32625;51.080;16.970;2022-09-13T00:18:42;10.52;;;8.98;;
46889;SDS011;32625;51.080;16.970;2022-09-13T00:21:11;14.40;;;8.95;;
46889;SDS011;32625;51.080;16.970;2022-09-13T00:23:42;11.68;;;8.68;;
46889;SDS011;32625;51.080;16.970;2022-09-13T00:26:19;10.00;;;8.32;;
46889;SDS011;32625;51.080;16.970;2022-09-13T00:28:52;9.38;;;8.13;;
46889;SDS011;32625;51.080;16.970;2022-09-13T00:31:22;11.77;;;8.52;;
46889;SDS011;32625;51.080;16.970;2022-09-13T00:36:44;14.05;;;9.57;;
46889;SDS011;32625;51.080;16.970;2022-09-13T00:39:11;12.77;;;9.23;;
46889;SDS011;32625;51.080;16.970;2022-09-13T00:41:40;12.60;;;8.90;;
46889;SDS011;32625;51.080;16.970;2022-09-13T00:51:10;10.35;;;8.02;;
46889;SDS011;32625;51.080;16.970;2022-09-13T00:53:38;10.32;;;8.13;;
46889;SDS011;32625;51.080;16.970;2022-09-13T01:01:07;11.37;;;8.47;;
46889;SDS011;32625;51.080;16.970;2022-09-13T01:03:37;10.88;;;9.50;;
46889;SDS011;32625;51.080;16.970;2022-09-13T01:14:40;15.45;;;8.90;;
46889;SDS011;32625;51.080;16.970;2022-09-13T01:17:09;12.60;;;8.13;;
46889;SDS011;32625;51.080;16.970;2022-09-13T01:23:18;13.45;;;8.25;;
46889;SDS011;32625;51.080;16.970;2022-09-13T01:46:12;10.93;;;8.77;;
46889;SDS011;32625;51.080;16.970;2022-09-13T01:48:53;12.75;;;8.75;;
46889;SDS011;32625;51.080;16.970;2022-09-13T01:57:01;10.70;;;8.60;;
46889;SDS011;32625;51.080;16.970;2022-09-13T01:59:50;12.38;;;8.57;;
46889;SDS011;32625;51.080;16.970;2022-09-13T02:05:04;13.35;;;9.43;;
46889;SDS011;32625;51.080;16.970;2022-09-13T02:07:42;10.60;;;8.95;;
46889;SDS011;32625;51.080;16.970;2022-09-13T02:10:20;13.35;;;9.23;;
46889;SDS011;32625;51.080;16.970;2022-09-13T02:12:55;11.65;;;8.63;;
46889;SDS011;32625;51.080;16.970;2022-09-13T02:18:47;13.25;;;9.27;;
46889;SDS011;32625;51.080;16.970;2022-09-13T02:21:20;12.43;;;9.20;;
46889;SDS011;32625;51.080;16.970;2022-09-13T02:23:56;9.77;;;8.77;;
46889;SDS011;32625;51.080;16.970;2022-09-13T02:26:38;11.55;;;9.07;;
46889;SDS011;32625;51.080;16.970;2022-09-13T02:29:09;10.13;;;8.38;;
46889;SDS011;32625;51.080;16.970;2022-09-13T02:31:40;11.00;;;8.52;;
46889;SDS011;32625;51.080;16.970;2022-09-13T02:34:14;12.85;;;8.95;;
46889;SDS011;32625;51.080;16.970;2022-09-13T02:36:49;11.00;;;8.45;;
46889;SDS011;32625;51.080;16.970;2022-09-13T02:39:21;10.90;;;8.82;;
46889;SDS011;32625;51.080;16.970;2022-09-13T02:44:53;11.32;;;8.65;;
46889;SDS011;32625;51.080;16.970;2022-09-13T02:53:32;9.82;;;8.80;;
46889;SDS011;32625;51.080;16.970;2022-09-13T02:56:09;10.95;;;9.43;;
46889;SDS011;32625;51.080;16.970;2022-09-13T03:01:12;11.20;;;10.10;;
46889;SDS011;32625;51.080;16.970;2022-09-13T03:03:40;12.25;;;9.05;;
46889;SDS011;32625;51.080;16.970;2022-09-13T03:06:09;11.57;;;9.35;;
46889;SDS011;32625;51.080;16.970;2022-09-13T03:08:36;12.73;;;9.95;;
46889;SDS011;32625;51.080;16.970;2022-09-13T03:11:28;12.07;;;9.45;;
46889;SDS011;32625;51.080;16.970;2022-09-13T03:22:26;12.15;;;8.80;;
46889;SDS011;32625;51.080;16.970;2022-09-13T03:30:33;10.88;;;8.35;;
46889;SDS011;32625;51.080;16.970;2022-09-13T03:33:15;12.27;;;8.68;;
46889;SDS011;32625;51.080;16.970;2022-09-13T03:41:43;12.30;;;8.75;;
46889;SDS011;32625;51.080;16.970;2022-09-13T03:46:46;11.95;;;8.75;;
46889;SDS011;32625;51.080;16.970;2022-09-13T03:49:15;10.27;;;9.05;;
46889;SDS011;32625;51.080;16.970;2022-09-13T03:51:48;10.23;;;8.68;;
46889;SDS011;32625;51.080;16.970;2022-09-13T03:54:35;11.20;;;9.00;;
46889;SDS011;32625;51.080;16.970;2022-09-13T03:57:07;16.70;;;9.52;;
46889;SDS011;32625;51.080;16.970;2022-09-13T03:59:50;9.68;;;8.68;;
46889;SDS011;32625;51.080;16.970;2022-09-13T04:02:22;11.95;;;9.10;;
46889;SDS011;32625;51.080;16.970;2022-09-13T04:04:55;12.32;;;9.20;;
46889;SDS011;32625;51.080;16.970;2022-09-13T04:07:22;11.75;;;9.68;;
46889;SDS011;32625;51.080;16.970;2022-09-13T04:09:50;11.27;;;9.15;;
46889;SDS011;32625;51.080;16.970;2022-09-13T04:12:17;11.70;;;8.80;;
46889;SDS011;32625;51.080;16.970;2022-09-13T04:14:44;13.88;;;9.18;;
46889;SDS011;32625;51.080;16.970;2022-09-13T04:17:14;13.48;;;9.20;;
46889;SDS011;32625;51.080;16.970;2022-09-13T04:19:41;12.63;;;9.35;;
46889;SDS011;32625;51.080;16.970;2022-09-13T04:22:11;11.02;;;8.75;;
46889;SDS011;32625;51.080;16.970;2022-09-13T04:24:39;13.07;;;9.43;;
46889;SDS011;32625;51.080;16.970;2022-09-13T04:27:06;17.45;;;10.23;;
46889;SDS011;32625;51.080;16.970;2022-09-13T04:29:33;10.85;;;8.85;;
46889;SDS011;32625;51.080;16.970;2022-09-13T04:32:00;12.05;;;9.25;;
46889;SDS011;32625;51.080;16.970;2022-09-13T04:34:27;12.73;;;10.13;;
46889;SDS011;32625;51.080;16.970;2022-09-13T04:36:55;13.20;;;9.90;;
46889;SDS011;32625;51.080;16.970;2022-09-13T04:39:22;13.10;;;10.52;;
46889;SDS011;32625;51.080;16.970;2022-09-13T04:41:50;11.10;;;9.90;;
46889;SDS011;32625;51.080;16.970;2022-09-13T04:44:20;14.05;;;9.82;;
46889;SDS011;32625;51.080;16.970;2022-09-13T04:46:50;14.65;;;10.35;;
46889;SDS011;32625;51.080;16.970;2022-09-13T04:49:18;10.80;;;9.57;;
46889;SDS011;32625;51.080;16.970;2022-09-13T04:51:48;13.85;;;10.57;;
46889;SDS011;32625;51.080;16.970;2022-09-13T04:54:15;11.63;;;9.98;;
46889;SDS011;32625;51.080;16.970;2022-09-13T04:56:43;14.07;;;10.63;;
46889;SDS011;32625;51.080;16.970;2022-09-13T04:59:11;16.60;;;10.15;;
46889;SDS011;32625;51.080;16.970;2022-09-13T05:01:39;13.27;;;10.40;;
46889;SDS011;32625;51.080;16.970;2022-09-13T05:04:07;16.50;;;10.40;;
46889;SDS011;32625;51.080;16.970;2022-09-13T05:06:35;12.75;;;8.80;;
46889;SDS011;32625;51.080;16.970;2022-09-13T05:09:02;15.73;;;9.50;;
46889;SDS011;32625;51.080;16.970;2022-09-13T05:11:31;12.25;;;9.15;;
46889;SDS011;32625;51.080;16.970;2022-09-13T05:14:01;13.30;;;8.93;;
46889;SDS011;32625;51.080;16.970;2022-09-13T05:16:29;16.20;;;10.40;;
46889;SDS011;32625;51.080;16.970;2022-09-13T05:18:58;15.23;;;10.80;;
46889;SDS011;32625;51.080;16.970;2022-09-13T05:21:26;10.82;;;9.25;;
46889;SDS011;32625;51.080;16.970;2022-09-13T05:23:54;10.68;;;9.23;;
46889;SDS011;32625;51.080;16.970;2022-09-13T05:26:24;11.43;;;9.20;;
46889;SDS011;32625;51.080;16.970;2022-09-13T05:28:54;13.60;;;9.48;;
46889;SDS011;32625;51.080;16.970;2022-09-13T05:31:23;11.80;;;8.88;;
46889;SDS011;32625;51.080;16.970;2022-09-13T05:33:55;11.32;;;8.98;;
46889;SDS011;32625;51.080;16.970;2022-09-13T05:36:24;12.02;;;8.55;;
46889;SDS011;32625;51.080;16.970;2022-09-13T05:38:52;10.00;;;7.70;;
46889;SDS011;32625;51.080;16.970;2022-09-13T05:41:40;10.55;;;8.27;;
46889;SDS011;32625;51.080;16.970;2022-09-13T05:46:59;8.68;;;7.82;;
46889;SDS011;32625;51.080;16.970;2022-09-13T05:49:26;10.32;;;8.25;;
46889;SDS011;32625;51.080;16.970;2022-09-13T05:51:59;10.68;;;9.57;;
46889;SDS011;32625;51.080;16.970;2022-09-13T05:54:26;9.77;;;8.73;;
46889;SDS011;32625;51.080;16.970;2022-09-13T05:56:53;13.05;;;9.00;;
46889;SDS011;32625;51.080;16.970;2022-09-13T05:59:22;12.98;;;8.27;;
46889;SDS011;32625;51.080;16.970;2022-09-13T06:01:50;12.35;;;8.50;;
46889;SDS011;32625;51.080;16.970;2022-09-13T06:04:17;11.25;;;8.70;;
46889;SDS011;32625;51.080;16.970;2022-09-13T06:06:44;12.90;;;9.43;;
46889;SDS011;32625;51.080;16.970;2022-09-13T06:09:11;12.13;;;9.30;;
46889;SDS011;32625;51.080;16.970;2022-09-13T06:11:39;13.00;;;8.95;;
46889;SDS011;32625;51.080;16.970;2022-09-13T06:14:06;9.82;;;8.20;;
46889;SDS011;32625;51.080;16.970;2022-09-13T06:16:33;10.25;;;8.98;;
46889;SDS011;32625;51.080;16.970;2022-09-13T06:19:00;12.00;;;8.93;;
46889;SDS011;32625;51.080;16.970;2022-09-13T06:21:28;9.52;;;8.60;;
46889;SDS011;32625;51.080;16.970;2022-09-13T06:23:55;14.38;;;8.93;;
46889;SDS011;32625;51.080;16.970;2022-09-13T06:26:23;8.60;;;7.80;;
46889;SDS011;32625;51.080;16.970;2022-09-13T06:28:52;10.73;;;8.35;;
46889;SDS011;32625;51.080;16.970;2022-09-13T06:31:22;10.95;;;8.30;;
46889;SDS011;32625;51.080;16.970;2022-09-13T06:33:56;9.85;;;8.82;;
46889;SDS011;32625;51.080;16.970;2022-09-13T06:36:24;12.75;;;8.70;;
46889;SDS011;32625;51.080;16.970;2022-09-13T06:38:52;8.52;;;7.65;;
46889;SDS011;32625;51.080;16.970;2022-09-13T06:41:20;13.90;;;8.48;;
46889;SDS011;32625;51.080;16.970;2022-09-13T06:43:53;10.25;;;7.80;;
46889;SDS011;32625;51.080;16.970;2022-09-13T06:46:22;11.57;;;8.68;;
46889;SDS011;32625;51.080;16.970;2022-09-13T06:48:50;11.25;;;8.38;;
46889;SDS011;32625;51.080;16.970;2022-09-13T06:51:19;9.40;;;8.40;;
46889;SDS011;32625;51.080;16.970;2022-09-13T06:53:48;11.70;;;7.95;;
46889;SDS011;32625;51.080;16.970;2022-09-13T06:56:18;8.85;;;8.02;;
46889;SDS011;32625;51.080;16.970;2022-09-13T06:58:47;9.02;;;8.10;;
46889;SDS011;32625;51.080;16.970;2022-09-13T07:01:20;9.27;;;8.35;;
46889;SDS011;32625;51.080;16.970;2022-09-13T07:03:53;11.00;;;7.32;;
46889;SDS011;32625;51.080;16.970;2022-09-13T07:06:26;8.07;;;7.28;;
46889;SDS011;32625;51.080;16.970;2022-09-13T07:08:55;10.38;;;7.57;;
46889;SDS011;32625;51.080;16.970;2022-09-13T07:11:24;8.82;;;7.13;;
46889;SDS011;32625;51.080;16.970;2022-09-13T07:13:55;9.57;;;6.90;;
46889;SDS011;32625;51.080;16.970;2022-09-13T07:16:24;10.15;;;7.20;;
46889;SDS011;32625;51.080;16.970;2022-09-13T07:18:55;7.93;;;7.00;;
46889;SDS011;32625;51.080;16.970;2022-09-13T07:21:31;7.00;;;6.22;;
46889;SDS011;32625;51.080;16.970;2022-09-13T07:23:59;9.05;;;7.03;;
46889;SDS011;32625;51.080;16.970;2022-09-13T07:26:27;9.10;;;7.20;;
46889;SDS011;32625;51.080;16.970;2022-09-13T07:28:55;9.55;;;6.32;;
46889;SDS011;32625;51.080;16.970;2022-09-13T07:31:29;8.02;;;7.22;;
46889;SDS011;32625;51.080;16.970;2022-09-13T07:34:02;7.85;;;6.32;;
46889;SDS011;32625;51.080;16.970;2022-09-13T07:36:32;9.50;;;6.85;;
46889;SDS011;32625;51.080;16.970;2022-09-13T07:39:01;10.52;;;6.25;;
46889;SDS011;32625;51.080;16.970;2022-09-13T07:41:29;7.82;;;6.80;;
46889;SDS011;32625;51.080;16.970;2022-09-13T07:43:58;10.57;;;6.38;;
46889;SDS011;32625;51.080;16.970;2022-09-13T07:46:29;9.85;;;5.78;;
46889;SDS011;32625;51.080;16.970;2022-09-13T07:48:58;9.90;;;6.72;;
46889;SDS011;32625;51.080;16.970;2022-09-13T07:51:27;14.18;;;6.82;;
46889;SDS011;32625;51.080;16.970;2022-09-13T07:54:05;10.55;;;6.05;;
46889;SDS011;32625;51.080;16.970;2022-09-13T07:56:37;8.15;;;6.30;;
46889;SDS011;32625;51.080;16.970;2022-09-13T07:59:09;9.80;;;6.00;;
46889;SDS011;32625;51.080;16.970;2022-09-13T08:01:46;7.20;;;6.50;;
46889;SDS011;32625;51.080;16.970;2022-09-13T08:04:15;9.50;;;6.65;;
46889;SDS011;32625;51.080;16.970;2022-09-13T08:06:45;6.93;;;6.22;;
46889;SDS011;32625;51.080;16.970;2022-09-13T08:09:12;7.75;;;6.78;;
46889;SDS011;32625;51.080;16.970;2022-09-13T08:11:42;14.75;;;7.57;;
46889;SDS011;32625;51.080;16.970;2022-09-13T08:14:14;8.70;;;5.85;;
46889;SDS011;32625;51.080;16.970;2022-09-13T08:16:43;10.10;;;6.95;;
46889;SDS011;32625;51.080;16.970;2022-09-13T08:19:14;11.38;;;6.80;;
46889;SDS011;32625;51.080;16.970;2022-09-13T08:21:43;7.70;;;6.03;;
46889;SDS011;32625;51.080;16.970;2022-09-13T08:24:15;10.70;;;6.32;;
46889;SDS011;32625;51.080;16.970;2022-09-13T08:26:46;8.23;;;6.40;;
46889;SDS011;32625;51.080;16.970;2022-09-13T08:29:14;8.80;;;6.43;;
46889;SDS011;32625;51.080;16.970;2022-09-13T08:31:41;9.77;;;6.88;;
46889;SDS011;32625;51.080;16.970;2022-09-13T08:34:10;8.88;;;6.40;;
46889;SDS011;32625;51.080;16.970;2022-09-13T08:36:40;6.25;;;5.65;;
46889;SDS011;32625;51.080;16.970;2022-09-13T08:39:07;7.10;;;5.40;;
46889;SDS011;32625;51.080;16.970;2022-09-13T08:49:34;7.32;;;5.15;;
46889;SDS011;32625;51.080;16.970;2022-09-13T08:54:52;5.20;;;4.63;;
46889;SDS011;32625;51.080;16.970;2022-09-13T09:05:43;4.57;;;4.18;;
46889;SDS011;32625;51.080;16.970;2022-09-13T09:08:29;4.75;;;4.35;;
46889;SDS011;32625;51.080;16.970;2022-09-13T09:11:06;6.97;;;4.55;;
46889;SDS011;32625;51.080;16.970;2022-09-13T09:13:52;5.78;;;4.30;;
46889;SDS011;32625;51.080;16.970;2022-09-13T09:16:32;4.85;;;3.78;;
46889;SDS011;32625;51.080;16.970;2022-09-13T09:21:42;3.97;;;3.42;;
46889;SDS011;32625;51.080;16.970;2022-09-13T09:24:17;4.93;;;3.10;;
46889;SDS011;32625;51.080;16.970;2022-09-13T09:26:49;7.80;;;4.90;;
46889;SDS011;32625;51.080;16.970;2022-09-13T09:29:22;8.60;;;4.32;;
46889;SDS011;32625;51.080;16.970;2022-09-13T09:34:47;4.78;;;4.30;;
46889;SDS011;32625;51.080;16.970;2022-09-13T09:37:19;6.05;;;4.07;;
46889;SDS011;32625;51.080;16.970;2022-09-13T09:39:47;5.20;;;3.80;;
46889;SDS011;32625;51.080;16.970;2022-09-13T09:42:17;3.45;;;3.15;;
46889;SDS011;32625;51.080;16.970;2022-09-13T09:47:21;7.20;;;3.80;;
46889;SDS011;32625;51.080;16.970;2022-09-13T09:50:00;4.35;;;3.28;;
46889;SDS011;32625;51.080;16.970;2022-09-13T09:55:46;6.00;;;3.95;;
46889;SDS011;32625;51.080;16.970;2022-09-13T10:01:25;7.20;;;3.72;;
46889;SDS011;32625;51.080;16.970;2022-09-13T10:04:17;4.15;;;3.75;;
46889;SDS011;32625;51.080;16.970;2022-09-13T10:06:42;4.20;;;3.75;;
46889;SDS011;32625;51.080;16.970;2022-09-13T10:09:15;7.13;;;4.03;;
46889;SDS011;32625;51.080;16.970;2022-09-13T10:11:57;6.38;;;3.40;;
46889;SDS011;32625;51.080;16.970;2022-09-13T10:14:27;6.45;;;3.95;;
46889;SDS011;32625;51.080;16.970;2022-09-13T10:17:28;4.57;;;3.90;;
46889;SDS011;32625;51.080;16.970;2022-09-13T10:19:57;5.53;;;3.97;;
46889;SDS011;32625;51.080;16.970;2022-09-13T10:22:31;5.63;;;4.60;;
46889;SDS011;32625;51.080;16.970;2022-09-13T10:25:14;5.30;;;4.20;;
46889;SDS011;32625;51.080;16.970;2022-09-13T10:27:49;4.93;;;4.30;;
46889;SDS011;32625;51.080;16.970;2022-09-13T10:30:36;6.88;;;4.80;;
46889;SDS011;32625;51.080;16.970;2022-09-13T10:36:22;8.82;;;4.53;;
46889;SDS011;32625;51.080;16.970;2022-09-13T10:39:14;6.35;;;4.32;;
46889;SDS011;32625;51.080;16.970;2022-09-13T10:41:48;6.20;;;4.00;;
46889;SDS011;32625;51.080;16.970;2022-09-13T10:47:06;6.88;;;3.60;;
46889;SDS011;32625;51.080;16.970;2022-09-13T10:49:45;8.30;;;4.00;;
46889;SDS011;32625;51.080;16.970;2022-09-13T10:52:24;8.02;;;3.58;;
46889;SDS011;32625;51.080;16.970;2022-09-13T10:54:54;5.57;;;3.78;;
46889;SDS011;32625;51.080;16.970;2022-09-13T11:15:56;4.35;;;3.85;;
46889;SDS011;32625;51.080;16.970;2022-09-13T11:18:38;4.13;;;3.75;;
46889;SDS011;32625;51.080;16.970;2022-09-13T11:24:00;6.63;;;3.88;;
46889;SDS011;32625;51.080;16.970;2022-09-13T11:32:17;6.47;;;3.30;;
46889;SDS011;32625;51.080;16.970;2022-09-13T11:38:20;3.90;;;3.40;;
46889;SDS011;32625;51.080;16.970;2022-09-13T11:57:17;5.68;;;4.13;;
46889;SDS011;32625;51.080;16.970;2022-09-13T12:00:04;5.28;;;4.00;;
46889;SDS011;32625;51.080;16.970;2022-09-13T12:05:26;5.47;;;4.47;;
46889;SDS011;32625;51.080;16.970;2022-09-13T12:13:11;7.10;;;4.15;;
46889;SDS011;32625;51.080;16.970;2022-09-13T12:15:45;4.32;;;4.00;;
46889;SDS011;32625;51.080;16.970;2022-09-13T12:18:19;7.82;;;4.38;;
46889;SDS011;32625;51.080;16.970;2022-09-13T12:21:04;5.32;;;3.83;;
46889;SDS011;32625;51.080;16.970;2022-09-13T12:23:42;6.55;;;5.10;;
46889;SDS011;32625;51.080;16.970;2022-09-13T12:26:19;6.80;;;4.60;;
46889;SDS011;32625;51.080;16.970;2022-09-13T12:28:56;4.68;;;3.83;;
46889;SDS011;32625;51.080;16.970;2022-09-13T12:31:28;7.15;;;4.38;;
46889;SDS011;32625;51.080;16.970;2022-09-13T12:33:58;5.80;;;4.50;;
46889;SDS011;32625;51.080;16.970;2022-09-13T12:36:37;5.65;;;4.03;;
46889;SDS011;32625;51.080;16.970;2022-09-13T12:39:30;4.80;;;4.10;;
46889;SDS011;32625;51.080;16.970;2022-09-13T12:42:24;5.03;;;4.07;;
46889;SDS011;32625;51.080;16.970;2022-09-13T12:50:51;4.93;;;3.90;;
46889;SDS011;32625;51.080;16.970;2022-09-13T13:02:38;9.50;;;4.43;;
46889;SDS011;32625;51.080;16.970;2022-09-13T13:08:03;8.32;;;4.20;;
46889;SDS011;32625;51.080;16.970;2022-09-13T13:10:42;5.03;;;4.18;;
46889;SDS011;32625;51.080;16.970;2022-09-13T13:13:12;4.97;;;4.22;;
46889;SDS011;32625;51.080;16.970;2022-09-13T13:18:58;5.25;;;4.75;;
46889;SDS011;32625;51.080;16.970;2022-09-13T13:26:46;8.73;;;4.67;;
46889;SDS011;32625;51.080;16.970;2022-09-13T13:29:17;5.05;;;4.50;;
46889;SDS011;32625;51.080;16.970;2022-09-13T13:34:34;5.75;;;4.05;;
46889;SDS011;32625;51.080;16.970;2022-09-13T13:49:52;6.53;;;3.97;;
46889;SDS011;32625;51.080;16.970;2022-09-13T14:01:13;4.47;;;4.07;;
46889;SDS011;32625;51.080;16.970;2022-09-13T14:03:58;7.53;;;4.63;;
46889;SDS011;32625;51.080;16.970;2022-09-13T14:09:23;5.43;;;4.13;;
46889;SDS011;32625;51.080;16.970;2022-09-13T14:12:27;4.90;;;4.40;;
46889;SDS011;32625;51.080;16.970;2022-09-13T14:15:09;5.50;;;4.82;;
46889;SDS011;32625;51.080;16.970;2022-09-13T14:18:17;4.72;;;4.03;;
46889;SDS011;32625;51.080;16.970;2022-09-13T14:20:58;6.75;;;4.80;;
46889;SDS011;32625;51.080;16.970;2022-09-13T14:23:30;5.97;;;4.35;;
46889;SDS011;32625;51.080;16.970;2022-09-13T14:25:59;9.25;;;4.65;;
46889;SDS011;32625;51.080;16.970;2022-09-13T14:28:28;5.28;;;4.72;;
46889;SDS011;32625;51.080;16.970;2022-09-13T14:30:57;5.85;;;4.22;;
46889;SDS011;32625;51.080;16.970;2022-09-13T14:33:28;4.95;;;4.50;;
46889;SDS011;32625;51.080;16.970;2022-09-13T14:36:15;5.50;;;4.13;;
46889;SDS011;32625;51.080;16.970;2022-09-13T14:38:50;8.23;;;4.00;;
46889;SDS011;32625;51.080;16.970;2022-09-13T14:41:30;6.80;;;4.60;;
46889;SDS011;32625;51.080;16.970;2022-09-13T14:46:57;4.57;;;4.18;;
46889;SDS011;32625;51.080;16.970;2022-09-13T14:49:32;4.88;;;4.30;;
46889;SDS011;32625;51.080;16.970;2022-09-13T14:57:19;5.28;;;4.40;;
46889;SDS011;32625;51.080;16.970;2022-09-13T14:59:52;6.47;;;4.50;;
46889;SDS011;32625;51.080;16.970;2022-09-13T15:02:24;4.20;;;3.80;;
46889;SDS011;32625;51.080;16.970;2022-09-13T15:04:56;8.15;;;4.78;;
46889;SDS011;32625;51.080;16.970;2022-09-13T15:07:29;5.82;;;4.85;;
46889;SDS011;32625;51.080;16.970;2022-09-13T15:12:35;11.82;;;5.15;;
46889;SDS011;32625;51.080;16.970;2022-09-13T15:15:16;4.93;;;4.30;;
46889;SDS011;32625;51.080;16.970;2022-09-13T15:18:02;4.97;;;4.43;;
46889;SDS011;32625;51.080;16.970;2022-09-13T15:23:15;5.82;;;4.30;;
46889;SDS011;32625;51.080;16.970;2022-09-13T15:25:55;4.90;;;4.40;;
46889;SDS011;32625;51.080;16.970;2022-09-13T15:28:28;7.85;;;4.55;;
46889;SDS011;32625;51.080;16.970;2022-09-13T15:30:58;7.65;;;3.95;;
46889;SDS011;32625;51.080;16.970;2022-09-13T15:33:28;8.02;;;4.22;;
46889;SDS011;32625;51.080;16.970;2022-09-13T15:41:39;4.78;;;4.38;;
46889;SDS011;32625;51.080;16.970;2022-09-13T15:44:16;10.43;;;4.03;;
46889;SDS011;32625;51.080;16.970;2022-09-13T15:46:45;6.03;;;4.13;;
46889;SDS011;32625;51.080;16.970;2022-09-13T15:49:15;5.35;;;4.18;;
46889;SDS011;32625;51.080;16.970;2022-09-13T15:51:44;4.90;;;4.47;;
46889;SDS011;32625;51.080;16.970;2022-09-13T15:54:12;6.13;;;3.95;;
46889;SDS011;32625;51.080;16.970;2022-09-13T15:56:41;5.10;;;4.57;;
46889;SDS011;32625;51.080;16.970;2022-09-13T15:59:14;5.95;;;4.47;;
46889;SDS011;32625;51.080;16.970;2022-09-13T16:01:43;7.43;;;4.55;;
46889;SDS011;32625;51.080;16.970;2022-09-13T16:04:11;8.68;;;4.53;;
46889;SDS011;32625;51.080;16.970;2022-09-13T16:06:38;6.38;;;4.68;;
46889;SDS011;32625;51.080;16.970;2022-09-13T16:09:19;9.27;;;4.93;;
46889;SDS011;32625;51.080;16.970;2022-09-13T16:11:48;5.47;;;4.20;;
46889;SDS011;32625;51.080;16.970;2022-09-13T16:14:16;5.65;;;4.68;;
46889;SDS011;32625;51.080;16.970;2022-09-13T16:16:44;5.60;;;4.53;;
46889;SDS011;32625;51.080;16.970;2022-09-13T16:19:12;6.90;;;4.43;;
46889;SDS011;32625;51.080;16.970;2022-09-13T16:21:41;6.75;;;4.32;;
46889;SDS011;32625;51.080;16.970;2022-09-13T16:24:08;5.93;;;4.45;;
46889;SDS011;32625;51.080;16.970;2022-09-13T16:26:36;5.65;;;4.35;;
46889;SDS011;32625;51.080;16.970;2022-09-13T16:29:04;6.03;;;4.72;;
46889;SDS011;32625;51.080;16.970;2022-09-13T16:31:31;5.43;;;4.50;;
46889;SDS011;32625;51.080;16.970;2022-09-13T16:33:59;6.72;;;4.20;;
46889;SDS011;32625;51.080;16.970;2022-09-13T16:36:26;4.97;;;4.20;;
46889;SDS011;32625;51.080;16.970;2022-09-13T16:38:54;8.38;;;5.00;;
46889;SDS011;32625;51.080;16.970;2022-09-13T16:41:22;6.47;;;4.82;;
46889;SDS011;32625;51.080;16.970;2022-09-13T16:43:49;7.15;;;4.85;;
46889;SDS011;32625;51.080;16.970;2022-09-13T16:46:16;5.07;;;4.57;;
46889;SDS011;32625;51.080;16.970;2022-09-13T16:48:44;8.60;;;4.90;;
46889;SDS011;32625;51.080;16.970;2022-09-13T16:51:11;6.43;;;5.07;;
46889;SDS011;32625;51.080;16.970;2022-09-13T16:53:39;6.45;;;5.07;;
46889;SDS011;32625;51.080;16.970;2022-09-13T16:56:08;6.22;;;5.18;;
46889;SDS011;32625;51.080;16.970;2022-09-13T16:58:42;8.50;;;6.03;;
46889;SDS011;32625;51.080;16.970;2022-09-13T17:01:12;6.45;;;5.18;;
46889;SDS011;32625;51.080;16.970;2022-09-13T17:03:42;5.93;;;5.22;;
46889;SDS011;32625;51.080;16.970;2022-09-13T17:06:11;6.65;;;5.50;;
46889;SDS011;32625;51.080;16.970;2022-09-13T17:08:40;7.75;;;5.88;;
46889;SDS011;32625;51.080;16.970;2022-09-13T17:11:10;8.38;;;6.20;;
46889;SDS011;32625;51.080;16.970;2022-09-13T17:13:38;9.82;;;5.95;;
46889;SDS011;32625;51.080;16.970;2022-09-13T17:16:15;6.65;;;6.05;;
46889;SDS011;32625;51.080;16.970;2022-09-13T17:18:47;11.50;;;6.95;;
46889;SDS011;32625;51.080;16.970;2022-09-13T17:21:15;9.18;;;6.18;;
46889;SDS011;32625;51.080;16.970;2022-09-13T17:23:43;8.35;;;6.05;;
46889;SDS011;32625;51.080;16.970;2022-09-13T17:26:10;7.63;;;6.30;;
46889;SDS011;32625;51.080;16.970;2022-09-13T17:28:37;7.78;;;6.32;;
46889;SDS011;32625;51.080;16.970;2022-09-13T17:31:04;7.03;;;6.20;;
46889;SDS011;32625;51.080;16.970;2022-09-13T17:33:31;8.77;;;6.95;;
46889;SDS011;32625;51.080;16.970;2022-09-13T17:35:59;9.80;;;7.03;;
46889;SDS011;32625;51.080;16.970;2022-09-13T17:38:27;7.22;;;6.50;;
46889;SDS011;32625;51.080;16.970;2022-09-13T17:40:58;7.72;;;6.15;;
46889;SDS011;32625;51.080;16.970;2022-09-13T17:43:29;17.88;;;6.57;;
46889;SDS011;32625;51.080;16.970;2022-09-13T17:46:01;7.05;;;6.10;;
46889;SDS011;32625;51.080;16.970;2022-09-13T17:48:29;8.25;;;5.78;;
46889;SDS011;32625;51.080;16.970;2022-09-13T17:51:04;7.03;;;5.50;;
46889;SDS011;32625;51.080;16.970;2022-09-13T17:53:40;8.40;;;5.70;;
46889;SDS011;32625;51.080;16.970;2022-09-13T17:56:09;7.95;;;5.50;;
46889;SDS011;32625;51.080;16.970;2022-09-13T17:58:36;11.50;;;6.13;;
46889;SDS011;32625;51.080;16.970;2022-09-13T18:01:04;7.95;;;5.72;;
46889;SDS011;32625;51.080;16.970;2022-09-13T18:03:33;7.35;;;6.18;;
46889;SDS011;32625;51.080;16.970;2022-09-13T18:06:02;6.70;;;5.55;;
46889;SDS011;32625;51.080;16.970;2022-09-13T18:08:31;7.63;;;5.63;;
46889;SDS011;32625;51.080;16.970;2022-09-13T18:11:06;9.05;;;5.68;;
46889;SDS011;32625;51.080;16.970;2022-09-13T18:13:39;9.18;;;6.15;;
46889;SDS011;32625;51.080;16.970;2022-09-13T18:16:12;6.30;;;5.68;;
46889;SDS011;32625;51.080;16.970;2022-09-13T18:18:47;6.78;;;6.07;;
46889;SDS011;32625;51.080;16.970;2022-09-13T18:21:15;6.43;;;5.32;;
46889;SDS011;32625;51.080;16.970;2022-09-13T18:23:47;7.15;;;5.70;;
46889;SDS011;32625;51.080;16.970;2022-09-13T18:26:17;8.75;;;5.75;;
46889;SDS011;32625;51.080;16.970;2022-09-13T18:28:55;7.68;;;5.75;;
46889;SDS011;32625;51.080;16.970;2022-09-13T18:31:33;7.95;;;6.13;;
46889;SDS011;32625;51.080;16.970;2022-09-13T18:34:02;7.32;;;6.15;;
46889;SDS011;32625;51.080;16.970;2022-09-13T18:36:32;9.20;;;5.65;;
46889;SDS011;32625;51.080;16.970;2022-09-13T18:39:00;7.05;;;5.50;;
46889;SDS011;32625;51.080;16.970;2022-09-13T18:41:31;6.88;;;5.90;;
46889;SDS011;32625;51.080;16.970;2022-09-13T18:44:02;6.78;;;5.68;;
46889;SDS011;32625;51.080;16.970;2022-09-13T18:46:31;6.65;;;5.53;;
46889;SDS011;32625;51.080;16.970;2022-09-13T18:48:59;7.13;;;6.13;;
46889;SDS011;32625;51.080;16.970;2022-09-13T18:51:33;8.25;;;6.03;;
46889;SDS011;32625;51.080;16.970;2022-09-13T18:54:02;9.68;;;5.82;;
46889;SDS011;32625;51.080;16.970;2022-09-13T18:56:31;9.27;;;6.35;;
46889;SDS011;32625;51.080;16.970;2022-09-13T18:59:00;6.78;;;5.47;;
46889;SDS011;32625;51.080;16.970;2022-09-13T19:01:30;7.15;;;6.18;;
46889;SDS011;32625;51.080;16.970;2022-09-13T19:04:00;8.82;;;6.15;;
46889;SDS011;32625;51.080;16.970;2022-09-13T19:06:33;8.25;;;5.88;;
46889;SDS011;32625;51.080;16.970;2022-09-13T19:09:02;7.10;;;6.35;;
46889;SDS011;32625;51.080;16.970;2022-09-13T19:11:32;7.45;;;6.15;;
46889;SDS011;32625;51.080;16.970;2022-09-13T19:14:13;8.73;;;6.28;;
46889;SDS011;32625;51.080;16.970;2022-09-13T19:16:45;8.32;;;6.32;;
46889;SDS011;32625;51.080;16.970;2022-09-13T19:19:12;7.43;;;6.43;;
46889;SDS011;32625;51.080;16.970;2022-09-13T19:21:40;7.63;;;6.90;;